sensor_id;sensor_type;location;lat;lon;timestamp;P1;durP1;ratioP1;P2;durP2;ratioP2
35324;SDS011;35135;47.510;19.036;2023-06-26T00:00:49;7.60;;;6.90;;
35324;SDS011;35135;47.510;19.036;2023-06-26T00:03:15;7.35;;;6.65;;
35324;SDS011;35135;47.510;19.036;2023-06-26T00:05:41;7.25;;;6.65;;
35324;SDS011;35135;47.510;19.036;2023-06-26T00:08:07;7.63;;;6.93;;
35324;SDS011;35135;47.510;19.036;2023-06-26T00:10:33;8.07;;;7.25;;
35324;SDS011;35135;47.510;19.036;2023-06-26T00:12:59;9.75;;;7.38;;
35324;SDS011;35135;47.510;19.036;2023-06-26T00:15:25;9.90;;;6.82;;
35324;SDS011;35135;47.510;19.036;2023-06-26T00:17:50;7.30;;;6.60;;
35324;SDS011;35135;47.510;19.036;2023-06-26T00:20:16;10.55;;;6.88;;
35324;SDS011;35135;47.510;19.036;2023-06-26T00:22:43;8.38;;;7.57;;
35324;SDS011;35135;47.510;19.036;2023-06-26T00:25:10;8.13;;;7.43;;
35324;SDS011;35135;47.510;19.036;2023-06-26T00:27:36;7.55;;;6.88;;
35324;SDS011;35135;47.510;19.036;2023-06-26T00:30:01;8.07;;;7.28;;
35324;SDS011;35135;47.510;19.036;2023-06-26T00:32:27;7.82;;;7.13;;
35324;SDS011;35135;47.510;19.036;2023-06-26T00:34:53;8.55;;;7.70;;
35324;SDS011;35135;47.510;19.036;2023-06-26T00:37:19;7.75;;;7.05;;
35324;SDS011;35135;47.510;19.036;2023-06-26T00:39:45;8.15;;;7.45;;
35324;SDS011;35135;47.510;19.036;2023-06-26T00:42:10;8.32;;;7.18;;
35324;SDS011;35135;47.510;19.036;2023-06-26T00:44:36;8.90;;;7.50;;
35324;SDS011;35135;47.510;19.036;2023-06-26T00:47:02;8.13;;;7.10;;
35324;SDS011;35135;47.510;19.036;2023-06-26T00:49:27;7.90;;;7.20;;
35324;SDS011;35135;47.510;19.036;2023-06-26T00:51:53;8.48;;;7.40;;
35324;SDS011;35135;47.510;19.036;2023-06-26T00:54:20;7.65;;;6.95;;
35324;SDS011;35135;47.510;19.036;2023-06-26T00:56:47;7.35;;;6.65;;
35324;SDS011;35135;47.510;19.036;2023-06-26T00:59:13;9.07;;;8.25;;
35324;SDS011;35135;47.510;19.036;2023-06-26T01:01:39;8.70;;;7.20;;
35324;SDS011;35135;47.510;19.036;2023-06-26T01:04:05;8.45;;;6.80;;
35324;SDS011;35135;47.510;19.036;2023-06-26T01:06:31;12.65;;;7.13;;
35324;SDS011;35135;47.510;19.036;2023-06-26T01:09:02;8.07;;;7.28;;
35324;SDS011;35135;47.510;19.036;2023-06-26T01:11:28;7.93;;;7.13;;
35324;SDS011;35135;47.510;19.036;2023-06-26T01:13:54;7.47;;;6.78;;
35324;SDS011;35135;47.510;19.036;2023-06-26T01:16:21;7.93;;;7.15;;
35324;SDS011;35135;47.510;19.036;2023-06-26T01:18:48;8.13;;;7.32;;
35324;SDS011;35135;47.510;19.036;2023-06-26T01:21:14;7.72;;;7.03;;
35324;SDS011;35135;47.510;19.036;2023-06-26T01:26:26;8.75;;;6.90;;
35324;SDS011;35135;47.510;19.036;2023-06-26T01:28:54;8.10;;;7.32;;
35324;SDS011;35135;47.510;19.036;2023-06-26T01:31:22;8.05;;;7.35;;
35324;SDS011;35135;47.510;19.036;2023-06-26T01:33:48;8.10;;;7.40;;
35324;SDS011;35135;47.510;19.036;2023-06-26T01:36:15;8.75;;;7.25;;
35324;SDS011;35135;47.510;19.036;2023-06-26T01:38:41;8.30;;;7.50;;
35324;SDS011;35135;47.510;19.036;2023-06-26T01:41:07;7.88;;;7.07;;
35324;SDS011;35135;47.510;19.036;2023-06-26T01:46:42;7.78;;;7.07;;
35324;SDS011;35135;47.510;19.036;2023-06-26T01:49:31;8.40;;;7.50;;
35324;SDS011;35135;47.510;19.036;2023-06-26T01:52:12;8.70;;;7.55;;
35324;SDS011;35135;47.510;19.036;2023-06-26T01:55:01;7.95;;;7.25;;
35324;SDS011;35135;47.510;19.036;2023-06-26T01:57:33;7.65;;;6.80;;
35324;SDS011;35135;47.510;19.036;2023-06-26T02:00:01;8.27;;;7.47;;
35324;SDS011;35135;47.510;19.036;2023-06-26T02:02:30;8.50;;;7.13;;
35324;SDS011;35135;47.510;19.036;2023-06-26T02:04:56;8.00;;;7.22;;
35324;SDS011;35135;47.510;19.036;2023-06-26T02:07:22;8.55;;;7.78;;
35324;SDS011;35135;47.510;19.036;2023-06-26T02:09:48;8.77;;;7.97;;
35324;SDS011;35135;47.510;19.036;2023-06-26T02:12:13;8.98;;;8.00;;
35324;SDS011;35135;47.510;19.036;2023-06-26T02:14:39;8.60;;;7.80;;
35324;SDS011;35135;47.510;19.036;2023-06-26T02:17:05;9.13;;;7.57;;
35324;SDS011;35135;47.510;19.036;2023-06-26T02:19:32;9.05;;;8.23;;
35324;SDS011;35135;47.510;19.036;2023-06-26T02:21:58;9.02;;;8.13;;
35324;SDS011;35135;47.510;19.036;2023-06-26T02:24:23;8.88;;;7.78;;
35324;SDS011;35135;47.510;19.036;2023-06-26T02:26:49;8.30;;;7.47;;
35324;SDS011;35135;47.510;19.036;2023-06-26T02:29:15;8.57;;;7.43;;
35324;SDS011;35135;47.510;19.036;2023-06-26T02:31:40;8.00;;;7.28;;
35324;SDS011;35135;47.510;19.036;2023-06-26T02:34:06;9.05;;;8.07;;
35324;SDS011;35135;47.510;19.036;2023-06-26T02:36:32;8.98;;;7.88;;
35324;SDS011;35135;47.510;19.036;2023-06-26T02:38:58;8.30;;;7.50;;
35324;SDS011;35135;47.510;19.036;2023-06-26T02:41:23;8.90;;;8.10;;
35324;SDS011;35135;47.510;19.036;2023-06-26T02:43:49;8.57;;;7.78;;
35324;SDS011;35135;47.510;19.036;2023-06-26T02:46:14;8.75;;;7.85;;
35324;SDS011;35135;47.510;19.036;2023-06-26T02:48:40;8.23;;;7.53;;
35324;SDS011;35135;47.510;19.036;2023-06-26T02:51:07;8.57;;;7.78;;
35324;SDS011;35135;47.510;19.036;2023-06-26T02:53:32;8.35;;;7.50;;
35324;SDS011;35135;47.510;19.036;2023-06-26T02:55:58;9.02;;;7.50;;
35324;SDS011;35135;47.510;19.036;2023-06-26T02:58:24;9.35;;;8.45;;
35324;SDS011;35135;47.510;19.036;2023-06-26T03:00:49;8.57;;;7.72;;
35324;SDS011;35135;47.510;19.036;2023-06-26T03:03:16;9.13;;;8.23;;
35324;SDS011;35135;47.510;19.036;2023-06-26T03:05:41;8.90;;;8.00;;
35324;SDS011;35135;47.510;19.036;2023-06-26T03:08:07;9.05;;;7.68;;
35324;SDS011;35135;47.510;19.036;2023-06-26T03:10:33;8.20;;;7.03;;
35324;SDS011;35135;47.510;19.036;2023-06-26T03:12:58;7.97;;;7.28;;
35324;SDS011;35135;47.510;19.036;2023-06-26T03:15:24;9.90;;;8.25;;
35324;SDS011;35135;47.510;19.036;2023-06-26T03:17:50;8.45;;;7.65;;
35324;SDS011;35135;47.510;19.036;2023-06-26T03:20:16;9.10;;;8.18;;
35324;SDS011;35135;47.510;19.036;2023-06-26T03:22:41;9.20;;;8.30;;
35324;SDS011;35135;47.510;19.036;2023-06-26T03:25:07;9.10;;;7.65;;
35324;SDS011;35135;47.510;19.036;2023-06-26T03:27:33;8.77;;;7.80;;
35324;SDS011;35135;47.510;19.036;2023-06-26T03:29:59;8.60;;;7.78;;
35324;SDS011;35135;47.510;19.036;2023-06-26T03:32:25;8.50;;;7.50;;
35324;SDS011;35135;47.510;19.036;2023-06-26T03:34:50;8.57;;;7.68;;
35324;SDS011;35135;47.510;19.036;2023-06-26T03:37:18;8.88;;;7.50;;
35324;SDS011;35135;47.510;19.036;2023-06-26T03:39:43;8.88;;;7.78;;
35324;SDS011;35135;47.510;19.036;2023-06-26T03:42:09;8.68;;;7.82;;
35324;SDS011;35135;47.510;19.036;2023-06-26T03:44:35;8.07;;;7.00;;
35324;SDS011;35135;47.510;19.036;2023-06-26T03:47:00;9.95;;;7.55;;
35324;SDS011;35135;47.510;19.036;2023-06-26T03:49:26;8.23;;;7.43;;
35324;SDS011;35135;47.510;19.036;2023-06-26T03:51:52;8.70;;;7.45;;
35324;SDS011;35135;47.510;19.036;2023-06-26T03:54:18;8.60;;;7.80;;
35324;SDS011;35135;47.510;19.036;2023-06-26T03:56:43;8.82;;;7.45;;
35324;SDS011;35135;47.510;19.036;2023-06-26T03:59:09;8.52;;;7.63;;
35324;SDS011;35135;47.510;19.036;2023-06-26T04:01:36;8.10;;;7.40;;
35324;SDS011;35135;47.510;19.036;2023-06-26T04:04:02;7.63;;;6.93;;
35324;SDS011;35135;47.510;19.036;2023-06-26T04:06:28;8.55;;;7.18;;
35324;SDS011;35135;47.510;19.036;2023-06-26T04:08:56;7.57;;;6.72;;
35324;SDS011;35135;47.510;19.036;2023-06-26T04:11:22;7.82;;;7.05;;
35324;SDS011;35135;47.510;19.036;2023-06-26T04:13:49;7.53;;;6.82;;
35324;SDS011;35135;47.510;19.036;2023-06-26T04:16:14;7.93;;;7.15;;
35324;SDS011;35135;47.510;19.036;2023-06-26T04:18:40;7.63;;;6.70;;
35324;SDS011;35135;47.510;19.036;2023-06-26T04:21:13;9.10;;;7.50;;
35324;SDS011;35135;47.510;19.036;2023-06-26T04:23:39;7.63;;;6.93;;
35324;SDS011;35135;47.510;19.036;2023-06-26T04:26:06;7.93;;;6.80;;
35324;SDS011;35135;47.510;19.036;2023-06-26T04:28:32;8.35;;;7.55;;
35324;SDS011;35135;47.510;19.036;2023-06-26T04:30:59;9.07;;;8.15;;
35324;SDS011;35135;47.510;19.036;2023-06-26T04:33:26;8.90;;;8.00;;
35324;SDS011;35135;47.510;19.036;2023-06-26T04:35:52;8.18;;;7.38;;
35324;SDS011;35135;47.510;19.036;2023-06-26T04:38:18;8.60;;;7.70;;
35324;SDS011;35135;47.510;19.036;2023-06-26T04:40:45;8.93;;;7.93;;
35324;SDS011;35135;47.510;19.036;2023-06-26T04:43:10;10.73;;;7.82;;
35324;SDS011;35135;47.510;19.036;2023-06-26T04:45:36;8.63;;;7.70;;
35324;SDS011;35135;47.510;19.036;2023-06-26T04:48:02;10.65;;;8.02;;
35324;SDS011;35135;47.510;19.036;2023-06-26T04:50:28;8.05;;;7.25;;
35324;SDS011;35135;47.510;19.036;2023-06-26T04:52:55;8.65;;;7.78;;
35324;SDS011;35135;47.510;19.036;2023-06-26T04:55:23;8.95;;;8.05;;
35324;SDS011;35135;47.510;19.036;2023-06-26T04:57:49;8.20;;;7.40;;
35324;SDS011;35135;47.510;19.036;2023-06-26T05:00:15;8.85;;;7.38;;
35324;SDS011;35135;47.510;19.036;2023-06-26T05:02:41;8.18;;;7.45;;
35324;SDS011;35135;47.510;19.036;2023-06-26T05:05:07;8.82;;;7.43;;
35324;SDS011;35135;47.510;19.036;2023-06-26T05:07:33;7.93;;;7.13;;
35324;SDS011;35135;47.510;19.036;2023-06-26T05:09:59;8.57;;;7.55;;
35324;SDS011;35135;47.510;19.036;2023-06-26T05:12:24;9.25;;;8.07;;
35324;SDS011;35135;47.510;19.036;2023-06-26T05:14:50;7.88;;;7.07;;
35324;SDS011;35135;47.510;19.036;2023-06-26T05:17:16;8.32;;;7.43;;
35324;SDS011;35135;47.510;19.036;2023-06-26T05:19:41;8.93;;;7.82;;
35324;SDS011;35135;47.510;19.036;2023-06-26T05:22:07;10.18;;;8.27;;
35324;SDS011;35135;47.510;19.036;2023-06-26T05:24:35;8.50;;;7.70;;
35324;SDS011;35135;47.510;19.036;2023-06-26T05:27:01;9.38;;;6.88;;
35324;SDS011;35135;47.510;19.036;2023-06-26T05:29:27;9.40;;;7.57;;
35324;SDS011;35135;47.510;19.036;2023-06-26T05:31:55;8.77;;;7.53;;
35324;SDS011;35135;47.510;19.036;2023-06-26T05:34:22;7.75;;;6.88;;
35324;SDS011;35135;47.510;19.036;2023-06-26T05:36:51;8.00;;;7.20;;
35324;SDS011;35135;47.510;19.036;2023-06-26T05:39:20;9.27;;;7.45;;
35324;SDS011;35135;47.510;19.036;2023-06-26T05:41:46;9.38;;;7.22;;
35324;SDS011;35135;47.510;19.036;2023-06-26T05:44:12;8.73;;;7.22;;
35324;SDS011;35135;47.510;19.036;2023-06-26T05:46:38;8.38;;;6.85;;
35324;SDS011;35135;47.510;19.036;2023-06-26T05:49:04;8.32;;;7.40;;
35324;SDS011;35135;47.510;19.036;2023-06-26T05:51:30;7.80;;;7.10;;
35324;SDS011;35135;47.510;19.036;2023-06-26T05:53:56;10.02;;;7.78;;
35324;SDS011;35135;47.510;19.036;2023-06-26T05:56:22;7.22;;;6.53;;
35324;SDS011;35135;47.510;19.036;2023-06-26T05:58:48;10.73;;;7.75;;
35324;SDS011;35135;47.510;19.036;2023-06-26T06:01:15;10.55;;;7.18;;
35324;SDS011;35135;47.510;19.036;2023-06-26T06:03:41;8.05;;;7.13;;
35324;SDS011;35135;47.510;19.036;2023-06-26T06:06:06;8.73;;;7.15;;
35324;SDS011;35135;47.510;19.036;2023-06-26T06:08:32;7.95;;;6.85;;
35324;SDS011;35135;47.510;19.036;2023-06-26T06:10:59;12.50;;;7.03;;
35324;SDS011;35135;47.510;19.036;2023-06-26T06:13:26;9.98;;;7.28;;
35324;SDS011;35135;47.510;19.036;2023-06-26T06:15:52;12.70;;;7.40;;
35324;SDS011;35135;47.510;19.036;2023-06-26T06:18:17;9.65;;;6.72;;
35324;SDS011;35135;47.510;19.036;2023-06-26T06:20:43;15.43;;;8.10;;
35324;SDS011;35135;47.510;19.036;2023-06-26T06:23:08;15.15;;;9.48;;
35324;SDS011;35135;47.510;19.036;2023-06-26T06:25:34;25.33;;;13.40;;
35324;SDS011;35135;47.510;19.036;2023-06-26T06:28:00;18.25;;;10.85;;
35324;SDS011;35135;47.510;19.036;2023-06-26T06:30:25;12.95;;;8.50;;
35324;SDS011;35135;47.510;19.036;2023-06-26T06:32:52;11.52;;;7.28;;
35324;SDS011;35135;47.510;19.036;2023-06-26T06:35:18;12.05;;;7.70;;
35324;SDS011;35135;47.510;19.036;2023-06-26T06:37:44;9.40;;;8.00;;
35324;SDS011;35135;47.510;19.036;2023-06-26T06:40:10;8.95;;;7.03;;
35324;SDS011;35135;47.510;19.036;2023-06-26T06:42:36;12.52;;;7.53;;
35324;SDS011;35135;47.510;19.036;2023-06-26T06:45:02;10.45;;;7.30;;
35324;SDS011;35135;47.510;19.036;2023-06-26T06:47:29;7.38;;;6.63;;
35324;SDS011;35135;47.510;19.036;2023-06-26T06:49:55;7.63;;;6.22;;
35324;SDS011;35135;47.510;19.036;2023-06-26T06:52:20;9.60;;;7.43;;
35324;SDS011;35135;47.510;19.036;2023-06-26T06:54:52;9.52;;;7.45;;
35324;SDS011;35135;47.510;19.036;2023-06-26T06:57:20;7.75;;;6.63;;
35324;SDS011;35135;47.510;19.036;2023-06-26T06:59:49;9.07;;;6.90;;
35324;SDS011;35135;47.510;19.036;2023-06-26T07:02:18;7.97;;;6.60;;
35324;SDS011;35135;47.510;19.036;2023-06-26T07:04:43;7.60;;;6.32;;
35324;SDS011;35135;47.510;19.036;2023-06-26T07:07:09;8.13;;;6.60;;
35324;SDS011;35135;47.510;19.036;2023-06-26T07:09:36;7.85;;;6.68;;
35324;SDS011;35135;47.510;19.036;2023-06-26T07:12:02;7.63;;;6.70;;
35324;SDS011;35135;47.510;19.036;2023-06-26T07:14:27;6.93;;;6.13;;
35324;SDS011;35135;47.510;19.036;2023-06-26T07:16:53;7.35;;;6.20;;
35324;SDS011;35135;47.510;19.036;2023-06-26T07:19:19;6.85;;;6.25;;
35324;SDS011;35135;47.510;19.036;2023-06-26T07:21:44;8.40;;;6.45;;
35324;SDS011;35135;47.510;19.036;2023-06-26T07:24:11;6.88;;;6.18;;
35324;SDS011;35135;47.510;19.036;2023-06-26T07:26:37;8.45;;;6.45;;
35324;SDS011;35135;47.510;19.036;2023-06-26T07:29:03;9.43;;;6.63;;
35324;SDS011;35135;47.510;19.036;2023-06-26T07:31:29;7.50;;;6.50;;
35324;SDS011;35135;47.510;19.036;2023-06-26T07:33:54;8.27;;;6.70;;
35324;SDS011;35135;47.510;19.036;2023-06-26T07:36:20;7.75;;;7.00;;
35324;SDS011;35135;47.510;19.036;2023-06-26T07:38:46;6.93;;;6.32;;
35324;SDS011;35135;47.510;19.036;2023-06-26T07:41:12;6.65;;;6.05;;
35324;SDS011;35135;47.510;19.036;2023-06-26T07:43:38;7.15;;;6.45;;
35324;SDS011;35135;47.510;19.036;2023-06-26T07:46:03;8.63;;;6.40;;
35324;SDS011;35135;47.510;19.036;2023-06-26T07:48:29;6.97;;;6.28;;
35324;SDS011;35135;47.510;19.036;2023-06-26T07:50:54;6.93;;;6.22;;
35324;SDS011;35135;47.510;19.036;2023-06-26T07:53:20;7.93;;;6.00;;
35324;SDS011;35135;47.510;19.036;2023-06-26T07:55:46;7.95;;;6.35;;
35324;SDS011;35135;47.510;19.036;2023-06-26T07:58:11;7.53;;;6.00;;
35324;SDS011;35135;47.510;19.036;2023-06-26T08:00:37;6.35;;;5.80;;
35324;SDS011;35135;47.510;19.036;2023-06-26T08:03:03;7.47;;;6.40;;
35324;SDS011;35135;47.510;19.036;2023-06-26T08:05:29;7.00;;;6.40;;
35324;SDS011;35135;47.510;19.036;2023-06-26T08:07:55;7.50;;;6.20;;
35324;SDS011;35135;47.510;19.036;2023-06-26T08:10:21;6.72;;;5.88;;
35324;SDS011;35135;47.510;19.036;2023-06-26T08:12:46;7.57;;;6.57;;
35324;SDS011;35135;47.510;19.036;2023-06-26T08:15:13;7.90;;;6.00;;
35324;SDS011;35135;47.510;19.036;2023-06-26T08:17:39;6.97;;;6.28;;
35324;SDS011;35135;47.510;19.036;2023-06-26T08:20:05;7.18;;;5.80;;
35324;SDS011;35135;47.510;19.036;2023-06-26T08:22:33;6.88;;;6.22;;
35324;SDS011;35135;47.510;19.036;2023-06-26T08:24:59;7.75;;;6.38;;
35324;SDS011;35135;47.510;19.036;2023-06-26T08:27:24;6.72;;;6.15;;
35324;SDS011;35135;47.510;19.036;2023-06-26T08:29:50;8.13;;;6.47;;
35324;SDS011;35135;47.510;19.036;2023-06-26T08:32:16;7.05;;;6.35;;
35324;SDS011;35135;47.510;19.036;2023-06-26T08:34:42;7.05;;;6.10;;
35324;SDS011;35135;47.510;19.036;2023-06-26T08:37:07;8.55;;;6.15;;
35324;SDS011;35135;47.510;19.036;2023-06-26T08:39:36;6.35;;;5.75;;
35324;SDS011;35135;47.510;19.036;2023-06-26T08:42:01;7.35;;;5.70;;
35324;SDS011;35135;47.510;19.036;2023-06-26T08:44:27;6.82;;;6.07;;
35324;SDS011;35135;47.510;19.036;2023-06-26T08:46:53;7.00;;;6.30;;
35324;SDS011;35135;47.510;19.036;2023-06-26T08:49:25;6.20;;;5.60;;
35324;SDS011;35135;47.510;19.036;2023-06-26T08:52:17;6.50;;;5.90;;
35324;SDS011;35135;47.510;19.036;2023-06-26T08:54:49;6.82;;;6.13;;
35324;SDS011;35135;47.510;19.036;2023-06-26T08:57:22;6.43;;;5.82;;
35324;SDS011;35135;47.510;19.036;2023-06-26T08:59:50;6.28;;;5.68;;
35324;SDS011;35135;47.510;19.036;2023-06-26T09:02:16;6.30;;;5.70;;
35324;SDS011;35135;47.510;19.036;2023-06-26T09:04:42;6.97;;;5.85;;
35324;SDS011;35135;47.510;19.036;2023-06-26T09:07:08;5.82;;;5.32;;
35324;SDS011;35135;47.510;19.036;2023-06-26T09:09:34;5.85;;;5.22;;
35324;SDS011;35135;47.510;19.036;2023-06-26T09:12:03;6.65;;;5.95;;
35324;SDS011;35135;47.510;19.036;2023-06-26T09:14:29;6.30;;;5.70;;
35324;SDS011;35135;47.510;19.036;2023-06-26T09:16:55;6.00;;;5.40;;
35324;SDS011;35135;47.510;19.036;2023-06-26T09:19:21;5.75;;;5.25;;
35324;SDS011;35135;47.510;19.036;2023-06-26T09:21:48;6.43;;;5.82;;
35324;SDS011;35135;47.510;19.036;2023-06-26T09:24:15;6.25;;;5.65;;
35324;SDS011;35135;47.510;19.036;2023-06-26T09:26:41;6.28;;;5.68;;
35324;SDS011;35135;47.510;19.036;2023-06-26T09:29:08;6.75;;;6.10;;
35324;SDS011;35135;47.510;19.036;2023-06-26T09:31:37;6.72;;;6.07;;
35324;SDS011;35135;47.510;19.036;2023-06-26T09:34:04;6.32;;;5.72;;
35324;SDS011;35135;47.510;19.036;2023-06-26T09:36:31;7.03;;;5.88;;
35324;SDS011;35135;47.510;19.036;2023-06-26T09:39:05;6.65;;;6.05;;
35324;SDS011;35135;47.510;19.036;2023-06-26T09:41:41;6.72;;;5.85;;
35324;SDS011;35135;47.510;19.036;2023-06-26T09:44:09;6.30;;;5.70;;
35324;SDS011;35135;47.510;19.036;2023-06-26T09:46:37;6.47;;;5.88;;
35324;SDS011;35135;47.510;19.036;2023-06-26T09:49:04;6.57;;;5.97;;
35324;SDS011;35135;47.510;19.036;2023-06-26T09:51:31;7.30;;;5.85;;
35324;SDS011;35135;47.510;19.036;2023-06-26T09:53:58;6.30;;;5.70;;
35324;SDS011;35135;47.510;19.036;2023-06-26T09:56:25;6.25;;;5.72;;
35324;SDS011;35135;47.510;19.036;2023-06-26T09:58:52;6.32;;;5.57;;
35324;SDS011;35135;47.510;19.036;2023-06-26T10:01:25;6.63;;;6.03;;
35324;SDS011;35135;47.510;19.036;2023-06-26T10:03:51;6.95;;;6.22;;
35324;SDS011;35135;47.510;19.036;2023-06-26T10:06:19;7.18;;;5.88;;
35324;SDS011;35135;47.510;19.036;2023-06-26T10:09:05;6.75;;;6.05;;
35324;SDS011;35135;47.510;19.036;2023-06-26T10:11:37;6.57;;;5.80;;
35324;SDS011;35135;47.510;19.036;2023-06-26T10:14:11;8.20;;;6.20;;
35324;SDS011;35135;47.510;19.036;2023-06-26T10:16:38;6.75;;;6.10;;
35324;SDS011;35135;47.510;19.036;2023-06-26T10:19:07;6.60;;;5.70;;
35324;SDS011;35135;47.510;19.036;2023-06-26T10:21:35;7.18;;;6.43;;
35324;SDS011;35135;47.510;19.036;2023-06-26T10:24:04;7.95;;;6.18;;
35324;SDS011;35135;47.510;19.036;2023-06-26T10:26:31;7.88;;;7.18;;
35324;SDS011;35135;47.510;19.036;2023-06-26T10:29:05;7.57;;;6.88;;
35324;SDS011;35135;47.510;19.036;2023-06-26T10:31:32;7.93;;;7.13;;
35324;SDS011;35135;47.510;19.036;2023-06-26T10:33:58;7.40;;;6.70;;
35324;SDS011;35135;47.510;19.036;2023-06-26T10:36:31;7.72;;;7.03;;
35324;SDS011;35135;47.510;19.036;2023-06-26T10:38:58;7.32;;;6.63;;
35324;SDS011;35135;47.510;19.036;2023-06-26T10:41:30;7.78;;;6.97;;
35324;SDS011;35135;47.510;19.036;2023-06-26T10:44:06;7.68;;;6.85;;
35324;SDS011;35135;47.510;19.036;2023-06-26T10:46:33;7.35;;;6.65;;
35324;SDS011;35135;47.510;19.036;2023-06-26T10:49:13;6.80;;;6.15;;
35324;SDS011;35135;47.510;19.036;2023-06-26T10:51:39;7.13;;;5.95;;
35324;SDS011;35135;47.510;19.036;2023-06-26T10:54:18;7.80;;;7.00;;
35324;SDS011;35135;47.510;19.036;2023-06-26T10:56:48;7.03;;;6.38;;
35324;SDS011;35135;47.510;19.036;2023-06-26T11:04:36;6.65;;;5.97;;
35324;SDS011;35135;47.510;19.036;2023-06-26T11:07:22;7.20;;;6.55;;
35324;SDS011;35135;47.510;19.036;2023-06-26T11:15:16;6.63;;;6.03;;
35324;SDS011;35135;47.510;19.036;2023-06-26T11:17:44;7.03;;;6.32;;
35324;SDS011;35135;47.510;19.036;2023-06-26T11:20:11;6.97;;;6.32;;
35324;SDS011;35135;47.510;19.036;2023-06-26T11:22:39;6.82;;;6.13;;
35324;SDS011;35135;47.510;19.036;2023-06-26T11:25:06;6.32;;;5.63;;
35324;SDS011;35135;47.510;19.036;2023-06-26T11:27:40;7.25;;;6.53;;
35324;SDS011;35135;47.510;19.036;2023-06-26T11:30:07;6.55;;;5.85;;
35324;SDS011;35135;47.510;19.036;2023-06-26T11:32:35;7.75;;;6.68;;
35324;SDS011;35135;47.510;19.036;2023-06-26T11:35:02;7.93;;;6.15;;
35324;SDS011;35135;47.510;19.036;2023-06-26T11:37:29;6.10;;;5.60;;
35324;SDS011;35135;47.510;19.036;2023-06-26T11:39:56;6.50;;;5.53;;
35324;SDS011;35135;47.510;19.036;2023-06-26T11:42:22;6.40;;;5.80;;
35324;SDS011;35135;47.510;19.036;2023-06-26T11:44:49;6.20;;;5.60;;
35324;SDS011;35135;47.510;19.036;2023-06-26T11:47:16;6.13;;;5.53;;
35324;SDS011;35135;47.510;19.036;2023-06-26T11:49:43;6.10;;;5.50;;
35324;SDS011;35135;47.510;19.036;2023-06-26T11:52:10;6.03;;;5.53;;
35324;SDS011;35135;47.510;19.036;2023-06-26T11:54:35;6.50;;;5.90;;
35324;SDS011;35135;47.510;19.036;2023-06-26T11:57:02;6.57;;;5.88;;
35324;SDS011;35135;47.510;19.036;2023-06-26T11:59:34;6.10;;;5.43;;
35324;SDS011;35135;47.510;19.036;2023-06-26T12:02:08;6.30;;;5.78;;
35324;SDS011;35135;47.510;19.036;2023-06-26T12:04:38;6.78;;;6.18;;
35324;SDS011;35135;47.510;19.036;2023-06-26T12:07:07;7.50;;;6.00;;
35324;SDS011;35135;47.510;19.036;2023-06-26T12:09:41;6.43;;;5.28;;
35324;SDS011;35135;47.510;19.036;2023-06-26T12:12:09;6.60;;;6.03;;
35324;SDS011;35135;47.510;19.036;2023-06-26T12:14:35;6.22;;;5.63;;
35324;SDS011;35135;47.510;19.036;2023-06-26T12:17:08;6.15;;;5.55;;
35324;SDS011;35135;47.510;19.036;2023-06-26T12:19:39;6.43;;;5.82;;
35324;SDS011;35135;47.510;19.036;2023-06-26T12:22:08;6.07;;;5.55;;
35324;SDS011;35135;47.510;19.036;2023-06-26T12:24:38;6.53;;;5.65;;
35324;SDS011;35135;47.510;19.036;2023-06-26T12:27:08;6.13;;;5.32;;
35324;SDS011;35135;47.510;19.036;2023-06-26T12:29:35;5.82;;;5.32;;
35324;SDS011;35135;47.510;19.036;2023-06-26T12:32:03;6.28;;;5.68;;
35324;SDS011;35135;47.510;19.036;2023-06-26T12:34:31;5.95;;;5.35;;
35324;SDS011;35135;47.510;19.036;2023-06-26T12:39:28;8.52;;;5.90;;
35324;SDS011;35135;47.510;19.036;2023-06-26T12:41:57;6.65;;;5.95;;
35324;SDS011;35135;47.510;19.036;2023-06-26T12:44:26;6.22;;;5.63;;
35324;SDS011;35135;47.510;19.036;2023-06-26T12:46:54;5.63;;;5.07;;
35324;SDS011;35135;47.510;19.036;2023-06-26T12:49:43;5.68;;;5.18;;
35324;SDS011;35135;47.510;19.036;2023-06-26T12:52:09;6.00;;;5.50;;
35324;SDS011;35135;47.510;19.036;2023-06-26T12:54:40;5.82;;;5.32;;
35324;SDS011;35135;47.510;19.036;2023-06-26T12:57:07;5.82;;;5.32;;
35324;SDS011;35135;47.510;19.036;2023-06-26T12:59:33;5.30;;;4.80;;
35324;SDS011;35135;47.510;19.036;2023-06-26T13:02:03;6.20;;;5.60;;
35324;SDS011;35135;47.510;19.036;2023-06-26T13:04:29;7.10;;;5.28;;
35324;SDS011;35135;47.510;19.036;2023-06-26T13:06:55;5.60;;;5.10;;
35324;SDS011;35135;47.510;19.036;2023-06-26T13:09:24;5.88;;;5.38;;
35324;SDS011;35135;47.510;19.036;2023-06-26T13:11:51;6.75;;;5.30;;
35324;SDS011;35135;47.510;19.036;2023-06-26T13:14:17;6.32;;;5.72;;
35324;SDS011;35135;47.510;19.036;2023-06-26T13:16:42;5.85;;;5.30;;
35324;SDS011;35135;47.510;19.036;2023-06-26T13:19:08;5.88;;;5.38;;
35324;SDS011;35135;47.510;19.036;2023-06-26T13:21:34;5.60;;;5.10;;
35324;SDS011;35135;47.510;19.036;2023-06-26T13:24:00;6.80;;;5.28;;
35324;SDS011;35135;47.510;19.036;2023-06-26T13:26:26;6.60;;;5.55;;
35324;SDS011;35135;47.510;19.036;2023-06-26T13:28:54;6.47;;;5.53;;
35324;SDS011;35135;47.510;19.036;2023-06-26T13:31:19;6.88;;;5.30;;
35324;SDS011;35135;47.510;19.036;2023-06-26T13:33:46;6.38;;;5.78;;
35324;SDS011;35135;47.510;19.036;2023-06-26T13:36:13;6.18;;;5.57;;
35324;SDS011;35135;47.510;19.036;2023-06-26T13:38:40;6.18;;;5.57;;
35324;SDS011;35135;47.510;19.036;2023-06-26T13:41:06;5.85;;;5.28;;
35324;SDS011;35135;47.510;19.036;2023-06-26T13:43:31;5.68;;;5.20;;
35324;SDS011;35135;47.510;19.036;2023-06-26T13:45:57;6.03;;;5.43;;
35324;SDS011;35135;47.510;19.036;2023-06-26T13:48:23;6.68;;;5.78;;
35324;SDS011;35135;47.510;19.036;2023-06-26T13:50:49;6.45;;;5.57;;
35324;SDS011;35135;47.510;19.036;2023-06-26T13:53:16;5.97;;;5.38;;
35324;SDS011;35135;47.510;19.036;2023-06-26T13:55:42;6.20;;;5.57;;
35324;SDS011;35135;47.510;19.036;2023-06-26T13:58:08;6.40;;;5.82;;
35324;SDS011;35135;47.510;19.036;2023-06-26T14:00:34;6.30;;;5.70;;
35324;SDS011;35135;47.510;19.036;2023-06-26T14:03:01;5.68;;;5.18;;
35324;SDS011;35135;47.510;19.036;2023-06-26T14:05:31;6.00;;;5.47;;
35324;SDS011;35135;47.510;19.036;2023-06-26T14:07:57;6.38;;;5.63;;
35324;SDS011;35135;47.510;19.036;2023-06-26T14:10:23;5.90;;;5.30;;
35324;SDS011;35135;47.510;19.036;2023-06-26T14:12:48;6.20;;;5.70;;
35324;SDS011;35135;47.510;19.036;2023-06-26T14:15:14;5.55;;;5.05;;
35324;SDS011;35135;47.510;19.036;2023-06-26T14:17:40;6.03;;;5.45;;
35324;SDS011;35135;47.510;19.036;2023-06-26T14:20:07;6.00;;;5.35;;
35324;SDS011;35135;47.510;19.036;2023-06-26T14:22:40;5.80;;;5.28;;
35324;SDS011;35135;47.510;19.036;2023-06-26T14:25:06;5.90;;;5.30;;
35324;SDS011;35135;47.510;19.036;2023-06-26T14:27:33;5.53;;;4.95;;
35324;SDS011;35135;47.510;19.036;2023-06-26T14:29:59;7.35;;;5.25;;
35324;SDS011;35135;47.510;19.036;2023-06-26T14:32:26;5.97;;;5.35;;
35324;SDS011;35135;47.510;19.036;2023-06-26T14:34:52;5.72;;;5.22;;
35324;SDS011;35135;47.510;19.036;2023-06-26T14:37:17;7.05;;;5.43;;
35324;SDS011;35135;47.510;19.036;2023-06-26T14:39:44;6.28;;;5.57;;
35324;SDS011;35135;47.510;19.036;2023-06-26T14:42:10;6.30;;;5.47;;
35324;SDS011;35135;47.510;19.036;2023-06-26T14:44:36;5.90;;;5.30;;
35324;SDS011;35135;47.510;19.036;2023-06-26T14:47:01;5.97;;;5.40;;
35324;SDS011;35135;47.510;19.036;2023-06-26T14:49:27;5.97;;;5.40;;
35324;SDS011;35135;47.510;19.036;2023-06-26T14:51:53;5.80;;;5.30;;